Time;durP1;ratioP1;P1;durP2;ratioP2;P2;SDS_P1;SDS_P2;PMS_P1;PMS_P2;Temp;Humidity;BMP_temperature;BMP_pressure;BME280_temperature;BME280_humidity;BME280_pressure;Samples;Min_cycle;Max_cycle;Signal;HPM_P1;HPM_P2
2022/08/09 00:00:46;;;;;;;;;;;;;;;27.94;31.14;99693.78;2078586;28;20046;-66
2022/08/09 00:01:49;;;;;;;;;;;;;;;27.93;31.12;99698.50;2078023;28;19909;-67
2022/08/09 00:02:50;;;;;;;;;;;;;;;27.92;31.22;99696.78;2077708;28;19911;-67
2022/08/09 00:03:50;;;;;;;;;;;;;;;27.93;31.17;99697.66;2079969;28;19920;-67
2022/08/09 00:04:51;;;;;;;;;;;;;;;27.92;31.15;99690.38;2071839;28;19916;-66
2022/08/09 00:05:51;;;;;;;;;;;;;;;27.92;31.11;99685.69;2077093;28;20292;-67
2022/08/09 00:06:51;;;;;;;;;;;;;;;27.92;31.12;99691.22;2081758;28;20625;-66
2022/08/09 00:07:51;;;;;;;;;;;;;;;27.93;31.03;99692.09;2082413;28;20028;-67
2022/08/09 00:08:52;;;;;;;;;;;;;;;27.93;31.17;99692.09;2079529;28;20831;-66
2022/08/09 00:09:52;;;;;;;;;;;;;;;27.92;31.18;99690.38;2079576;28;20293;-66
2022/08/09 00:10:52;;;;;;;;;;;;;;;27.91;31.20;99683.16;2077517;28;20653;-67
2022/08/09 00:11:53;;;;;;;;;;;;;;;27.92;31.36;99695.94;2080393;28;19990;-66
2022/08/09 00:12:53;;;;;;;;;;;;;;;27.91;31.09;99688.69;2078451;28;19924;-67
2022/08/09 00:13:53;;;;;;;;;;;;;;;27.92;31.35;99690.38;2084349;28;19935;-66
2022/08/09 00:14:54;;;;;;;;;;;;;;;27.92;31.14;99690.38;2083163;28;20541;-67
2022/08/09 00:15:54;;;;;;;;;;;;;;;27.92;31.06;99690.38;2081582;28;19920;-67
2022/08/09 00:16:55;;;;;;;;;;;;;;;27.91;31.16;99688.69;2084541;28;19908;-67
2022/08/09 00:17:55;;;;;;;;;;;;;;;27.92;31.08;99685.69;2075730;28;20669;-67
2022/08/09 00:18:56;;;;;;;;;;;;;;;27.92;31.14;99690.38;2084210;28;20359;-67
2022/08/09 00:19:57;;;;;;;;;;;;;;;27.93;31.32;99692.09;2081093;28;19996;-67
2022/08/09 00:20:57;;;;;;;;;;;;;;;27.91;31.30;99691.47;2080284;28;19921;-67
2022/08/09 00:21:57;;;;;;;;;;;;;;;27.91;31.30;99694.25;2084403;28;19921;-67
2022/08/09 00:22:57;;;;;;;;;;;;;;;27.91;31.23;99691.47;2081961;28;19932;-66
2022/08/09 00:23:58;;;;;;;;;;;;;;;27.91;31.23;99688.69;2076461;28;19970;-66
2022/08/09 00:24:58;;;;;;;;;;;;;;;27.91;31.39;99694.25;2083514;28;19956;-67
2022/08/09 00:25:59;;;;;;;;;;;;;;;27.90;31.41;99692.53;2080894;28;19917;-67
2022/08/09 00:26:59;;;;;;;;;;;;;;;27.90;31.35;99690.59;2078543;28;19986;-66
2022/08/09 00:28:00;;;;;;;;;;;;;;;27.90;31.57;99690.59;2079037;28;19931;-66
2022/08/09 00:29:01;;;;;;;;;;;;;;;27.90;31.36;99689.75;2083925;28;19989;-67
2022/08/09 00:30:01;;;;;;;;;;;;;;;27.91;31.38;99688.69;2079929;28;19916;-67
2022/08/09 00:31:03;;;;;;;;;;;;;;;27.90;31.53;99686.97;2081771;28;19916;-67
2022/08/09 00:32:03;;;;;;;;;;;;;;;27.89;31.36;99685.28;2078591;28;19960;-67
2022/08/09 00:33:04;;;;;;;;;;;;;;;27.90;31.41;99686.97;2082346;28;19917;-67
2022/08/09 00:34:04;;;;;;;;;;;;;;;27.89;31.48;99679.75;2074784;28;20020;-67
2022/08/09 00:35:05;;;;;;;;;;;;;;;27.89;31.41;99674.22;2074359;28;20094;-67
2022/08/09 00:36:05;;;;;;;;;;;;;;;27.89;31.58;99679.75;2088596;28;19908;-67
2022/08/09 00:37:06;;;;;;;;;;;;;;;27.90;31.37;99684.22;2086983;28;19970;-67
2022/08/09 00:38:08;;;;;;;;;;;;;;;27.89;31.53;99686.13;2079145;28;19909;-67
2022/08/09 00:39:09;;;;;;;;;;;;;;;27.89;31.37;99680.59;2081745;28;19942;-67
2022/08/09 00:40:09;;;;;;;;;;;;;;;27.89;31.44;99685.28;2082660;28;19916;-67
2022/08/09 00:41:10;;;;;;;;;;;;;;;27.89;31.29;99674.22;2075779;28;19917;-67
2022/08/09 00:42:10;;;;;;;;;;;;;;;27.89;31.47;99679.75;2075333;28;20473;-66
2022/08/09 00:43:11;;;;;;;;;;;;;;;27.89;31.32;99690.84;2076772;28;20394;-67
2022/08/09 00:44:11;;;;;;;;;;;;;;;27.88;31.56;99683.56;2079819;28;19921;-67
2022/08/09 00:45:11;;;;;;;;;;;;;;;27.89;31.40;99686.13;2079283;28;20608;-66
2022/08/09 00:46:11;;;;;;;;;;;;;;;27.89;31.29;99685.28;2078191;28;20302;-66
2022/08/09 00:47:12;;;;;;;;;;;;;;;27.89;31.42;99680.59;2080083;28;20520;-67
2022/08/09 00:48:12;;;;;;;;;;;;;;;27.89;31.51;99674.22;2077479;28;20434;-67
2022/08/09 00:49:12;;;;;;;;;;;;;;;27.89;31.33;99680.59;2081566;28;19916;-67
2022/08/09 00:50:13;;;;;;;;;;;;;;;27.89;31.27;99680.59;2084748;28;19916;-67
2022/08/09 00:51:14;;;;;;;;;;;;;;;27.88;31.31;99680.81;2082730;28;19923;-67
2022/08/09 00:52:15;;;;;;;;;;;;;;;27.89;31.55;99677.81;2082919;28;20454;-67
2022/08/09 00:53:15;;;;;;;;;;;;;;;27.88;31.38;99683.56;2077825;28;20789;-67
2022/08/09 00:54:16;;;;;;;;;;;;;;;27.89;31.64;99688.06;2079306;28;19944;-67
2022/08/09 00:55:17;;;;;;;;;;;;;;;27.89;31.47;99685.28;2080093;28;19912;-66
2022/08/09 00:56:17;;;;;;;;;;;;;;;27.89;31.41;99688.06;2076770;28;19920;-67
2022/08/09 00:57:18;;;;;;;;;;;;;;;27.90;31.39;99686.97;2081387;28;19917;-67
2022/08/09 00:58:18;;;;;;;;;;;;;;;27.89;31.47;99685.28;2079650;28;19916;-67
2022/08/09 00:59:18;;;;;;;;;;;;;;;27.89;31.62;99682.53;2078554;28;19952;-66
2022/08/09 01:00:19;;;;;;;;;;;;;;;27.89;31.48;99685.28;2081215;28;19923;-67
2022/08/09 01:01:23;;;;;;;;;;;;;;;27.88;31.72;99684.44;2082076;28;19917;-67
2022/08/09 01:02:25;;;;;;;;;;;;;;;27.89;31.53;99697.22;2084383;28;20161;-67
2022/08/09 01:03:30;;;;;;;;;;;;;;;27.89;31.82;99688.06;2083452;28;19942;-66
2022/08/09 01:04:36;;;;;;;;;;;;;;;27.89;31.62;99696.38;2082897;28;21004;-67
2022/08/09 01:05:42;;;;;;;;;;;;;;;27.89;31.55;99685.28;2074193;28;20007;-67
2022/08/09 01:06:47;;;;;;;;;;;;;;;27.89;31.49;99688.06;2082949;28;19924;-67
2022/08/09 01:08:05;;;;;;;;;;;;;;;27.89;31.58;99688.91;2080647;28;20378;-67
2022/08/09 01:09:25;;;;;;;;;;;;;;;27.89;31.76;99694.44;2078111;28;19965;-67
2022/08/09 01:10:40;;;;;;;;;;;;;;;27.89;31.48;99690.84;2080588;28;19983;-67
2022/08/09 01:11:54;;;;;;;;;;;;;;;27.90;31.67;99689.75;2084030;28;20276;-66
2022/08/09 01:13:11;;;;;;;;;;;;;;;27.89;31.79;99696.38;2082812;28;19917;-67
2022/08/09 01:14:15;;;;;;;;;;;;;;;27.89;31.51;99690.84;2077463;28;19917;-66
2022/08/09 01:15:18;;;;;;;;;;;;;;;27.89;31.65;99700.00;2076047;28;19917;-66
2022/08/09 01:16:20;;;;;;;;;;;;;;;27.89;31.78;99690.84;2080323;28;19908;-66
2022/08/09 01:17:24;;;;;;;;;;;;;;;27.89;31.76;99696.38;2082235;28;19935;-66
2022/08/09 01:18:28;;;;;;;;;;;;;;;27.88;31.80;99683.56;2078693;28;19920;-66
2022/08/09 01:19:37;;;;;;;;;;;;;;;27.88;31.77;99689.13;2075360;28;20485;-66
2022/08/09 01:20:37;;;;;;;;;;;;;;;27.88;31.56;99689.13;2076514;28;20387;-66
2022/08/09 01:21:51;;;;;;;;;;;;;;;27.88;31.68;99694.66;2080315;28;20417;-66
2022/08/09 01:23:05;;;;;;;;;;;;;;;27.87;31.63;99687.44;2081965;28;20456;-66
2022/08/09 01:24:23;;;;;;;;;;;;;;;27.86;31.80;99691.28;2083945;28;19943;-66
2022/08/09 01:25:50;;;;;;;;;;;;;;;27.86;31.53;99696.81;2081192;28;19909;-66
2022/08/09 01:27:07;;;;;;;;;;;;;;;27.86;31.72;99692.13;2080406;28;19997;-66
2022/08/09 01:28:08;;;;;;;;;;;;;;;27.85;31.81;99689.56;2078913;28;20444;-66
2022/08/09 01:29:11;;;;;;;;;;;;;;;27.86;31.55;99691.28;2080859;28;19916;-66
2022/08/09 01:30:11;;;;;;;;;;;;;;;27.85;31.80;99690.41;2084981;28;19917;-66
2022/08/09 01:31:18;;;;;;;;;;;;;;;27.85;31.46;99690.41;2083321;28;20002;-66
2022/08/09 01:32:20;;;;;;;;;;;;;;;27.85;31.65;99695.94;2081853;28;20188;-66
2022/08/09 01:33:22;;;;;;;;;;;;;;;27.85;31.58;99690.41;2085775;28;20290;-66
2022/08/09 01:34:24;;;;;;;;;;;;;;;27.85;31.66;99689.56;2082068;28;20395;-66
2022/08/09 01:35:33;;;;;;;;;;;;;;;27.85;31.50;99698.72;2085058;28;19909;-66
2022/08/09 01:36:34;;;;;;;;;;;;;;;27.85;31.45;99692.31;2083425;28;20301;-66
2022/08/09 01:37:36;;;;;;;;;;;;;;;27.84;31.60;99693.41;2081972;28;19922;-66
2022/08/09 01:38:38;;;;;;;;;;;;;;;27.85;31.57;99695.09;2084497;28;19924;-66
2022/08/09 01:39:40;;;;;;;;;;;;;;;27.85;31.51;99693.16;2084309;28;19920;-66
2022/08/09 01:40:43;;;;;;;;;;;;;;;27.85;31.63;99695.09;2083062;28;19917;-67
2022/08/09 01:41:44;;;;;;;;;;;;;;;27.85;31.31;99695.09;2085338;28;19920;-66
2022/08/09 01:42:45;;;;;;;;;;;;;;;27.86;31.73;99691.28;2083430;28;20770;-66
2022/08/09 01:43:47;;;;;;;;;;;;;;;27.86;31.77;99694.03;2078115;28;20741;-66
2022/08/09 01:44:48;;;;;;;;;;;;;;;27.86;31.55;99688.50;2084231;28;20492;-66
2022/08/09 01:45:49;;;;;;;;;;;;;;;27.85;31.48;99695.94;2079730;28;19921;-66
2022/08/09 01:46:50;;;;;;;;;;;;;;;27.86;31.73;99691.28;2084528;28;19920;-67
2022/08/09 01:47:51;;;;;;;;;;;;;;;27.85;31.66;99695.94;2081588;28;19917;-66
2022/08/09 01:48:52;;;;;;;;;;;;;;;27.85;31.72;99698.72;2084902;28;19916;-66
2022/08/09 01:49:54;;;;;;;;;;;;;;;27.85;31.64;99697.88;2083801;28;19917;-66
2022/08/09 01:50:54;;;;;;;;;;;;;;;27.85;31.79;99695.94;2080437;28;20662;-66
2022/08/09 01:51:57;;;;;;;;;;;;;;;27.86;31.64;99702.34;2085645;28;19926;-66
2022/08/09 01:52:59;;;;;;;;;;;;;;;27.85;31.84;99697.88;2083830;28;19909;-66
2022/08/09 01:54:01;;;;;;;;;;;;;;;27.84;31.74;99699.78;2085165;28;19916;-66
2022/08/09 01:55:02;;;;;;;;;;;;;;;27.83;31.74;99700.00;2086331;28;20520;-66
2022/08/09 01:56:03;;;;;;;;;;;;;;;27.84;31.70;99690.63;2082769;28;19957;-67
2022/08/09 01:57:06;;;;;;;;;;;;;;;27.83;31.74;99691.69;2085143;28;19967;-66
2022/08/09 01:58:07;;;;;;;;;;;;;;;27.83;31.96;99708.31;2083775;28;19916;-66
2022/08/09 01:59:10;;;;;;;;;;;;;;;27.83;31.70;99697.22;2082194;28;20456;-66
2022/08/09 02:00:12;;;;;;;;;;;;;;;27.83;31.99;99700.00;2085442;28;19939;-66
2022/08/09 02:01:13;;;;;;;;;;;;;;;27.83;31.93;99702.78;2076013;28;19917;-66
2022/08/09 02:02:14;;;;;;;;;;;;;;;27.82;31.73;99701.03;2082612;28;20374;-66
2022/08/09 02:03:15;;;;;;;;;;;;;;;27.82;31.92;99701.03;2084192;28;20377;-66
2022/08/09 02:04:16;;;;;;;;;;;;;;;27.82;31.82;99699.16;2072789;28;20003;-66
2022/08/09 02:05:18;;;;;;;;;;;;;;;27.82;31.82;99693.63;2076651;28;19917;-66
2022/08/09 02:07:07;;;;;;;;;;;;;;;27.82;31.77;99701.03;2075544;28;20019;-66
2022/08/09 02:07:42;;;;;;;;;;;;;;;27.80;32.04;99695.72;2075358;28;19917;-66
2022/08/09 02:08:44;;;;;;;;;;;;;;;27.80;31.76;99704.03;2079573;28;19965;-66
2022/08/09 02:09:49;;;;;;;;;;;;;;;27.80;32.02;99699.31;2072767;28;20007;-66
2022/08/09 02:10:51;;;;;;;;;;;;;;;27.79;31.95;99689.34;2078095;28;20027;-66
2022/08/09 02:11:52;;;;;;;;;;;;;;;27.78;32.05;99695.94;2083809;28;19916;-67
2022/08/09 02:12:54;;;;;;;;;;;;;;;27.79;31.79;99692.09;2082560;28;20417;-67
2022/08/09 02:13:55;;;;;;;;;;;;;;;27.79;32.02;99691.25;2081845;28;19916;-67
2022/08/09 02:14:57;;;;;;;;;;;;;;;27.79;31.86;99694.03;2082351;28;19912;-67
2022/08/09 02:15:58;;;;;;;;;;;;;;;27.78;31.93;99687.63;2078085;28;19910;-66
2022/08/09 02:16:59;;;;;;;;;;;;;;;27.78;31.72;99693.19;2082811;28;19970;-67
2022/08/09 02:18:01;;;;;;;;;;;;;;;27.78;31.69;99697.84;2084969;28;20027;-67
2022/08/09 02:19:02;;;;;;;;;;;;;;;27.79;31.68;99696.78;2086085;28;20007;-67
2022/08/09 02:20:02;;;;;;;;;;;;;;;27.79;31.69;99700.41;2078517;28;19913;-66
2022/08/09 02:21:07;;;;;;;;;;;;;;;27.79;31.75;99696.78;2077192;28;19923;-67
2022/08/09 02:22:12;;;;;;;;;;;;;;;27.79;31.82;99697.63;2079843;28;19924;-66
2022/08/09 02:23:15;;;;;;;;;;;;;;;27.79;31.95;99703.19;2083277;28;19916;-67
2022/08/09 02:24:19;;;;;;;;;;;;;;;27.80;31.76;99702.09;2085195;28;19916;-66
2022/08/09 02:25:20;;;;;;;;;;;;;;;27.82;31.87;99706.59;2082999;28;19923;-67
2022/08/09 02:26:21;;;;;;;;;;;;;;;27.82;31.66;99706.59;2084977;28;19959;-66
2022/08/09 02:27:22;;;;;;;;;;;;;;;27.79;31.89;99703.19;2082939;28;19916;-66
2022/08/09 02:28:25;;;;;;;;;;;;;;;27.80;31.80;99704.88;2083417;28;19935;-67
2022/08/09 02:29:29;;;;;;;;;;;;;;;27.80;31.89;99698.47;2077741;28;19948;-67
2022/08/09 02:30:33;;;;;;;;;;;;;;;27.82;31.82;99701.03;2082810;28;19943;-67
2022/08/09 02:31:35;;;;;;;;;;;;;;;27.79;31.83;99708.72;2085326;28;19916;-66
2022/08/09 02:32:39;;;;;;;;;;;;;;;27.79;31.86;99703.19;2077354;28;19964;-67
2022/08/09 02:33:42;;;;;;;;;;;;;;;27.78;32.02;99698.72;2070414;28;19952;-67
2022/08/09 02:34:44;;;;;;;;;;;;;;;27.79;31.82;99699.56;2070096;28;20366;-67
2022/08/09 02:35:46;;;;;;;;;;;;;;;27.78;32.08;99707.03;2077129;28;20394;-67
2022/08/09 02:36:51;;;;;;;;;;;;;;;27.78;32.08;99707.03;2078977;28;19908;-67
2022/08/09 02:37:58;;;;;;;;;;;;;;;27.78;31.88;99703.38;2078947;28;19980;-67
2022/08/09 02:39:01;;;;;;;;;;;;;;;27.78;32.13;99707.03;2084474;28;19924;-67
2022/08/09 02:40:05;;;;;;;;;;;;;;;27.77;32.11;99699.78;2081556;28;19920;-67
2022/08/09 02:41:07;;;;;;;;;;;;;;;27.77;32.05;99705.31;2076672;28;19946;-67
2022/08/09 02:42:15;;;;;;;;;;;;;;;27.77;32.07;99701.69;2076864;28;19917;-66
2022/08/09 02:43:17;;;;;;;;;;;;;;;27.77;32.08;99702.53;2080791;28;20789;-67
2022/08/09 02:44:21;;;;;;;;;;;;;;;27.76;32.37;99698.09;2076876;28;19959;-67
2022/08/09 02:45:33;;;;;;;;;;;;;;;27.76;32.06;99700.84;2068131;28;20722;-67
2022/08/09 02:46:34;;;;;;;;;;;;;;;27.76;32.17;99700.84;2083336;28;20675;-67
2022/08/09 02:47:36;;;;;;;;;;;;;;;27.76;32.25;99703.63;2081583;28;19917;-67
2022/08/09 02:48:38;;;;;;;;;;;;;;;27.76;32.28;99698.09;2083809;28;19927;-67
2022/08/09 02:49:40;;;;;;;;;;;;;;;27.76;32.08;99703.63;2083948;28;20399;-67
2022/08/09 02:50:42;;;;;;;;;;;;;;;27.75;32.08;99701.91;2083991;28;19912;-67
2022/08/09 02:51:44;;;;;;;;;;;;;;;27.77;32.28;99704.47;2072208;28;20435;-66
2022/08/09 02:53:04;;;;;;;;;;;;;;;27.76;32.19;99705.53;2075011;28;19948;-67
2022/08/09 02:54:05;;;;;;;;;;;;;;;27.77;32.16;99707.22;2077859;28;19956;-67
2022/08/09 02:55:07;;;;;;;;;;;;;;;27.77;32.01;99705.31;2079584;28;20458;-67
2022/08/09 02:56:09;;;;;;;;;;;;;;;27.78;32.22;99700.63;2081642;28;20031;-67
2022/08/09 02:57:10;;;;;;;;;;;;;;;27.76;32.16;99703.63;2078507;28;20697;-67
2022/08/09 02:58:12;;;;;;;;;;;;;;;27.77;32.16;99701.69;2079101;28;19912;-67
2022/08/09 02:59:13;;;;;;;;;;;;;;;27.77;32.19;99699.78;2081318;28;19915;-66
2022/08/09 03:00:14;;;;;;;;;;;;;;;27.77;32.19;99704.47;2077453;28;19938;-67
2022/08/09 03:01:16;;;;;;;;;;;;;;;27.76;32.29;99703.63;2078592;28;19909;-67
2022/08/09 03:02:19;;;;;;;;;;;;;;;27.76;32.31;99706.38;2084809;28;20342;-66
2022/08/09 03:03:20;;;;;;;;;;;;;;;27.76;32.36;99706.38;2082022;28;19914;-67
2022/08/09 03:04:22;;;;;;;;;;;;;;;27.76;32.31;99709.16;2078363;28;19977;-67
2022/08/09 03:05:23;;;;;;;;;;;;;;;27.77;32.17;99699.78;2085238;28;19939;-67
2022/08/09 03:06:24;;;;;;;;;;;;;;;27.77;32.43;99698.91;2072173;28;20014;-67
2022/08/09 03:07:25;;;;;;;;;;;;;;;27.76;32.26;99698.09;2077491;28;19920;-67
2022/08/09 03:08:26;;;;;;;;;;;;;;;27.77;32.37;99699.78;2078859;28;19917;-67
2022/08/09 03:09:27;;;;;;;;;;;;;;;27.75;32.26;99701.91;2077098;28;19921;-67
2022/08/09 03:10:28;;;;;;;;;;;;;;;27.75;32.22;99704.66;2081528;28;20430;-67
2022/08/09 03:11:29;;;;;;;;;;;;;;;27.75;32.26;99701.91;2082472;28;19916;-67
2022/08/09 03:12:31;;;;;;;;;;;;;;;27.75;32.20;99701.06;2078037;28;19982;-67
2022/08/09 03:13:32;;;;;;;;;;;;;;;27.74;32.11;99702.13;2084668;28;19959;-67
2022/08/09 03:14:33;;;;;;;;;;;;;;;27.74;32.25;99700.22;2079695;28;19923;-67
2022/08/09 03:15:33;;;;;;;;;;;;;;;27.73;32.27;99705.94;2084583;28;19969;-67
2022/08/09 03:16:34;;;;;;;;;;;;;;;27.73;32.29;99709.59;2084888;28;20299;-67
2022/08/09 03:17:35;;;;;;;;;;;;;;;27.73;32.09;99700.41;2077959;28;19962;-66
2022/08/09 03:18:35;;;;;;;;;;;;;;;27.73;32.02;99715.13;2081468;28;20015;-66
2022/08/09 03:19:37;;;;;;;;;;;;;;;27.73;32.07;99711.50;2075948;28;19909;-67
2022/08/09 03:20:38;;;;;;;;;;;;;;;27.71;32.28;99706.19;2079713;28;20387;-67
2022/08/09 03:21:40;;;;;;;;;;;;;;;27.73;32.26;99709.59;2081421;28;20408;-66
2022/08/09 03:22:43;;;;;;;;;;;;;;;27.73;32.29;99706.81;2084656;28;19923;-66
2022/08/09 03:23:45;;;;;;;;;;;;;;;27.73;32.17;99703.19;2080207;28;20421;-67
2022/08/09 03:24:45;;;;;;;;;;;;;;;27.73;32.13;99701.28;2077267;28;20427;-67
2022/08/09 03:25:46;;;;;;;;;;;;;;;27.73;32.35;99703.19;2083976;28;20671;-66
2022/08/09 03:26:47;;;;;;;;;;;;;;;27.73;32.27;99704.06;2083169;28;19924;-67
2022/08/09 03:27:50;;;;;;;;;;;;;;;27.73;32.14;99709.59;2084821;28;19932;-66
2022/08/09 03:28:54;;;;;;;;;;;;;;;27.72;32.28;99707.88;2082240;28;20394;-67
2022/08/09 03:29:55;;;;;;;;;;;;;;;27.72;32.26;99707.88;2083389;28;19929;-67
2022/08/09 03:30:56;;;;;;;;;;;;;;;27.73;32.37;99711.50;2076244;28;19916;-67
2022/08/09 03:31:56;;;;;;;;;;;;;;;27.72;32.33;99710.66;2080588;28;19916;-66
2022/08/09 03:32:58;;;;;;;;;;;;;;;27.73;32.25;99712.38;2083802;28;19917;-67
2022/08/09 03:34:01;;;;;;;;;;;;;;;27.73;32.27;99714.25;2084453;28;19916;-67
2022/08/09 03:35:01;;;;;;;;;;;;;;;27.73;32.26;99715.13;2082304;28;20019;-67
2022/08/09 03:36:02;;;;;;;;;;;;;;;27.73;32.46;99712.38;2083832;28;19924;-67
2022/08/09 03:37:02;;;;;;;;;;;;;;;27.73;32.38;99712.38;2082029;28;20299;-67
2022/08/09 03:38:02;;;;;;;;;;;;;;;27.73;32.26;99709.59;2081569;28;19921;-67
2022/08/09 03:39:03;;;;;;;;;;;;;;;27.73;32.35;99717.91;2084774;28;19916;-67
2022/08/09 03:40:04;;;;;;;;;;;;;;;27.72;32.43;99713.41;2083241;28;19947;-67
2022/08/09 03:41:04;;;;;;;;;;;;;;;27.72;32.34;99718.94;2083005;28;19916;-66
2022/08/09 03:42:04;;;;;;;;;;;;;;;27.72;32.29;99713.41;2084035;28;19956;-67
2022/08/09 03:43:05;;;;;;;;;;;;;;;27.72;32.45;99713.41;2081544;28;19998;-66
2022/08/09 03:44:05;;;;;;;;;;;;;;;27.72;32.56;99713.41;2084767;28;19929;-67
2022/08/09 03:45:05;;;;;;;;;;;;;;;27.72;32.58;99716.19;2083300;28;19916;-67
2022/08/09 03:46:06;;;;;;;;;;;;;;;27.72;32.59;99723.66;2081644;28;19965;-67
2022/08/09 03:47:06;;;;;;;;;;;;;;;27.70;32.33;99710.00;2084909;28;19950;-67
2022/08/09 03:48:06;;;;;;;;;;;;;;;27.70;32.55;99715.53;2082878;28;19917;-67
2022/08/09 03:49:07;;;;;;;;;;;;;;;27.70;32.42;99715.53;2083159;28;19922;-67
2022/08/09 03:50:08;;;;;;;;;;;;;;;27.71;32.50;99721.97;2083358;28;20015;-67
2022/08/09 03:51:10;;;;;;;;;;;;;;;27.69;32.47;99713.84;2082224;28;19920;-66
2022/08/09 03:52:11;;;;;;;;;;;;;;;27.70;32.64;99726.63;2076732;28;20023;-66
2022/08/09 03:53:12;;;;;;;;;;;;;;;27.69;32.65;99722.16;2072737;28;19958;-67
2022/08/09 03:54:13;;;;;;;;;;;;;;;27.69;32.38;99719.41;2082617;28;19924;-67
2022/08/09 03:55:14;;;;;;;;;;;;;;;27.70;32.61;99723.84;2085002;28;19961;-66
2022/08/09 03:56:14;;;;;;;;;;;;;;;27.69;32.48;99729.63;2080231;28;19970;-66
2022/08/09 03:57:15;;;;;;;;;;;;;;;27.68;32.58;99728.75;2081731;28;19917;-67
2022/08/09 03:58:16;;;;;;;;;;;;;;;27.68;32.40;99725.97;2083561;28;19916;-67
2022/08/09 03:59:16;;;;;;;;;;;;;;;27.69;32.51;99722.16;2080950;28;19921;-67
2022/08/09 04:00:17;;;;;;;;;;;;;;;27.69;32.61;99724.94;2078110;28;19922;-67
2022/08/09 04:01:17;;;;;;;;;;;;;;;27.70;32.74;99725.78;2069122;28;20004;-67
2022/08/09 04:02:18;;;;;;;;;;;;;;;27.69;32.56;99729.63;2076655;28;19916;-67
2022/08/09 04:03:19;;;;;;;;;;;;;;;27.69;32.54;99736.00;2075452;28;19913;-67
2022/08/09 04:04:19;;;;;;;;;;;;;;;27.68;32.54;99728.75;2074718;28;19944;-67
2022/08/09 04:05:20;;;;;;;;;;;;;;;27.69;32.64;99730.47;2084236;28;19908;-67
2022/08/09 04:06:20;;;;;;;;;;;;;;;27.68;32.72;99734.28;2067977;28;19943;-67
2022/08/09 04:07:21;;;;;;;;;;;;;;;27.69;32.68;99740.69;2076001;28;19923;-67
2022/08/09 04:08:21;;;;;;;;;;;;;;;27.68;32.71;99737.06;2076687;28;19923;-67
2022/08/09 04:09:21;;;;;;;;;;;;;;;27.68;32.72;99737.06;2075954;28;19996;-67
2022/08/09 04:10:22;;;;;;;;;;;;;;;27.68;32.69;99739.81;2076146;28;19916;-67
2022/08/09 04:11:23;;;;;;;;;;;;;;;27.68;32.69;99742.59;2084785;28;19924;-67
2022/08/09 04:12:23;;;;;;;;;;;;;;;27.68;32.60;99742.59;2079480;28;19920;-67
2022/08/09 04:13:23;;;;;;;;;;;;;;;27.68;32.57;99745.38;2076215;28;19975;-66
2022/08/09 04:14:24;;;;;;;;;;;;;;;27.68;32.57;99739.81;2083699;28;19912;-67
2022/08/09 04:15:24;;;;;;;;;;;;;;;27.68;32.47;99745.38;2083075;28;19916;-67
2022/08/09 04:16:25;;;;;;;;;;;;;;;27.68;32.70;99744.50;2082135;28;19916;-66
2022/08/09 04:17:25;;;;;;;;;;;;;;;27.67;32.50;99749.22;2082206;28;19921;-67
2022/08/09 04:18:26;;;;;;;;;;;;;;;27.67;32.80;99743.66;2083513;28;19928;-67
2022/08/09 04:19:26;;;;;;;;;;;;;;;27.67;32.64;99743.66;2080071;28;20294;-66
2022/08/09 04:20:27;;;;;;;;;;;;;;;27.67;32.64;99746.44;2085174;28;19962;-67
2022/08/09 04:21:27;;;;;;;;;;;;;;;27.67;32.84;99738.13;2079592;28;19916;-67
2022/08/09 04:22:27;;;;;;;;;;;;;;;27.68;32.84;99748.13;2082256;28;21259;-67
2022/08/09 04:23:28;;;;;;;;;;;;;;;27.66;32.72;99747.53;2080334;28;19913;-66
2022/08/09 04:24:28;;;;;;;;;;;;;;;27.66;32.75;99744.75;2060511;28;19928;-67
2022/08/09 04:25:29;;;;;;;;;;;;;;;27.66;32.61;99755.81;2073571;28;19908;-67
2022/08/09 04:26:29;;;;;;;;;;;;;;;27.66;32.77;99758.59;2081126;28;20059;-67
2022/08/09 04:27:30;;;;;;;;;;;;;;;27.65;32.79;99754.09;2082774;28;19916;-66
2022/08/09 04:28:30;;;;;;;;;;;;;;;27.65;32.66;99756.03;2080748;28;19923;-67
2022/08/09 04:29:30;;;;;;;;;;;;;;;27.64;32.93;99759.88;2077116;28;20000;-67
2022/08/09 04:30:30;;;;;;;;;;;;;;;27.64;32.76;99757.94;2083571;28;20953;-67
2022/08/09 04:31:31;;;;;;;;;;;;;;;27.64;32.67;99760.72;2080383;28;20383;-67
2022/08/09 04:32:31;;;;;;;;;;;;;;;27.64;32.69;99763.50;2077786;28;19916;-67
2022/08/09 04:33:31;;;;;;;;;;;;;;;27.64;32.77;99759.88;2078568;28;19909;-67
2022/08/09 04:34:34;;;;;;;;;;;;;;;27.63;32.63;99767.31;2082879;28;19950;-67
2022/08/09 04:35:35;;;;;;;;;;;;;;;27.63;32.84;99770.06;2082691;28;19909;-67
2022/08/09 04:36:35;;;;;;;;;;;;;;;27.63;32.98;99770.06;2079005;28;20673;-67
2022/08/09 04:37:36;;;;;;;;;;;;;;;27.64;32.97;99769.03;2077812;28;19917;-67
2022/08/09 04:38:36;;;;;;;;;;;;;;;27.64;32.83;99777.34;2080812;28;20014;-67
2022/08/09 04:39:37;;;;;;;;;;;;;;;27.64;32.86;99770.94;2083709;28;19921;-67
2022/08/09 04:40:49;;;;;;;;;;;;;;;27.64;32.94;99776.50;2078297;28;19923;-66
2022/08/09 04:41:49;;;;;;;;;;;;;;;27.64;33.04;99777.34;2079200;28;19916;-66
2022/08/09 04:42:49;;;;;;;;;;;;;;;27.64;32.83;99780.09;2080205;28;19908;-67
2022/08/09 04:43:50;;;;;;;;;;;;;;;27.64;32.87;99777.34;2078258;28;20399;-67
2022/08/09 04:44:51;;;;;;;;;;;;;;;27.63;32.84;99775.63;2077835;28;19917;-67
2022/08/09 04:45:51;;;;;;;;;;;;;;;27.64;33.05;99782.88;2083364;28;19958;-67
2022/08/09 04:46:52;;;;;;;;;;;;;;;27.63;32.80;99775.63;2076344;28;20384;-67
2022/08/09 04:47:52;;;;;;;;;;;;;;;27.63;33.05;99772.84;2077852;28;19967;-67
2022/08/09 04:48:53;;;;;;;;;;;;;;;27.64;33.11;99779.25;2076735;28;19924;-66
2022/08/09 04:49:54;;;;;;;;;;;;;;;27.63;32.92;99781.16;2078076;28;19916;-66
2022/08/09 04:50:54;;;;;;;;;;;;;;;27.62;32.94;99776.69;2076653;28;19986;-67
2022/08/09 04:51:55;;;;;;;;;;;;;;;27.64;32.94;99787.56;2083524;28;19991;-67
2022/08/09 04:52:55;;;;;;;;;;;;;;;27.63;32.91;99783.91;2078907;28;19915;-67
2022/08/09 04:53:55;;;;;;;;;;;;;;;27.63;33.16;99795.00;2076965;28;19919;-67
2022/08/09 04:54:56;;;;;;;;;;;;;;;27.63;32.96;99795.00;2080767;28;19916;-67
2022/08/09 04:55:57;;;;;;;;;;;;;;;27.63;32.84;99795.00;2079481;28;20563;-66
2022/08/09 04:56:58;;;;;;;;;;;;;;;27.63;33.00;99786.69;2077497;28;20008;-66
2022/08/09 04:57:58;;;;;;;;;;;;;;;27.62;32.98;99796.06;2078492;28;19927;-66
2022/08/09 04:58:58;;;;;;;;;;;;;;;27.62;32.96;99790.53;2078808;28;19988;-67
2022/08/09 04:59:59;;;;;;;;;;;;;;;27.62;33.12;99790.53;2077347;28;19916;-66
2022/08/09 05:01:00;;;;;;;;;;;;;;;27.61;33.12;99788.84;2079246;28;19917;-66
2022/08/09 05:02:00;;;;;;;;;;;;;;;27.62;32.87;99798.00;2083286;28;19916;-67
2022/08/09 05:03:01;;;;;;;;;;;;;;;27.62;33.03;99795.22;2081054;28;19920;-66
2022/08/09 05:04:02;;;;;;;;;;;;;;;27.61;32.79;99797.16;2083019;28;21822;-67
2022/08/09 05:05:02;;;;;;;;;;;;;;;27.60;33.01;99798.19;2077456;28;19917;-67
2022/08/09 05:06:05;;;;;;;;;;;;;;;27.61;33.04;99807.34;2082872;28;19916;-67
2022/08/09 05:07:06;;;;;;;;;;;;;;;27.60;33.04;99798.19;2081865;28;19924;-67
2022/08/09 05:08:06;;;;;;;;;;;;;;;27.59;33.03;99807.59;2078467;28;20465;-67
2022/08/09 05:09:06;;;;;;;;;;;;;;;27.60;33.10;99811.19;2079627;28;19915;-67
2022/08/09 05:10:07;;;;;;;;;;;;;;;27.59;33.14;99818.66;2078437;28;19908;-66
2022/08/09 05:11:07;;;;;;;;;;;;;;;27.58;33.08;99805.84;2079884;28;19962;-67
2022/08/09 05:12:08;;;;;;;;;;;;;;;27.59;33.18;99818.66;2083081;28;20050;-67
2022/08/09 05:13:08;;;;;;;;;;;;;;;27.58;33.07;99816.94;2082316;28;19928;-67
2022/08/09 05:14:09;;;;;;;;;;;;;;;27.59;33.29;99813.13;2078317;28;19917;-67
2022/08/09 05:15:09;;;;;;;;;;;;;;;27.60;33.17;99814.81;2066910;28;19917;-67
2022/08/09 05:16:10;;;;;;;;;;;;;;;27.60;33.15;99808.44;2065838;28;19917;-67
2022/08/09 05:17:10;;;;;;;;;;;;;;;27.60;33.13;99813.97;2077519;28;20731;-67
2022/08/09 05:18:10;;;;;;;;;;;;;;;27.60;33.18;99813.97;2081746;28;19955;-67
2022/08/09 05:19:13;;;;;;;;;;;;;;;27.60;33.31;99812.03;2079596;28;19916;-67
2022/08/09 05:20:14;;;;;;;;;;;;;;;27.59;33.21;99818.66;2077971;28;20350;-67
2022/08/09 05:21:14;;;;;;;;;;;;;;;27.59;33.13;99818.66;2067829;28;19923;-67
2022/08/09 05:22:15;;;;;;;;;;;;;;;27.59;33.30;99815.88;2080628;28;19999;-66
2022/08/09 05:23:15;;;;;;;;;;;;;;;27.59;33.24;99818.66;2078980;28;19970;-66